createdAt,value
2022-09-10T00:12:06.179Z,1017
2022-09-10T00:40:22.206Z,1016.84
2022-09-10T01:08:24.943Z,1016.68
2022-09-10T01:36:37.769Z,1016.77
2022-09-10T02:04:51.472Z,1016.56
2022-09-10T02:33:07.279Z,1016.44
2022-09-10T03:01:20.411Z,1016.54
2022-09-10T03:29:40.914Z,1016.52
2022-09-10T03:58:04.353Z,1016.68
2022-09-10T04:26:43.169Z,1016.66
2022-09-10T04:54:42.669Z,1016.82
2022-09-10T05:22:44.454Z,1017.04
2022-09-10T05:51:13.955Z,1017.16
2022-09-10T06:19:30.040Z,1017.16
2022-09-10T07:15:58.789Z,1017.75
2022-09-10T07:44:18.380Z,1017.95
2022-09-10T08:12:26.928Z,1018.14
2022-09-10T08:40:37.740Z,1018.46
2022-09-10T09:09:00.740Z,1018.67
2022-09-10T09:37:33.529Z,1018.66
2022-09-10T10:05:53.805Z,1018.67
2022-09-10T10:34:19.777Z,1018.56
2022-09-10T11:02:39.529Z,1018.12
2022-09-10T11:31:02.125Z,1017.88
2022-09-10T11:59:18.090Z,1018.11
2022-09-10T12:27:34.693Z,1018.19
2022-09-10T12:56:00.746Z,1017.96
2022-09-10T13:24:19.426Z,1017.86
2022-09-10T13:52:39.490Z,1017.8
2022-09-10T14:21:03.020Z,1018.05
2022-09-10T14:49:20.402Z,1017.87
2022-09-10T15:17:40.374Z,1017.93
2022-09-10T15:46:01.194Z,1017.95
2022-09-10T16:14:15.345Z,1018.15
2022-09-10T16:42:35.998Z,1018.19
2022-09-10T17:10:58.218Z,1018.28
2022-09-10T17:39:18.577Z,1018.4
2022-09-10T18:07:40.021Z,1018.78
2022-09-10T18:35:54.725Z,1018.9
2022-09-10T19:04:15.248Z,1019.08
2022-09-10T19:32:39.452Z,1019.47
2022-09-10T20:01:28.611Z,1019.58
2022-09-10T20:30:24.770Z,1019.46
2022-09-10T20:59:28.286Z,1019.61
2022-09-10T21:27:52.141Z,1019.75
2022-09-10T21:56:48.244Z,1019.8
2022-09-10T22:25:48.056Z,1019.98
2022-09-10T22:54:42.698Z,1020.06
2022-09-10T23:23:03.744Z,1020.34
2022-09-10T23:51:23.401Z,1020.3
